createdAt,value
2022-09-12T00:00:53.260Z,12.50
2022-09-12T00:04:04.282Z,12.51
2022-09-12T00:07:11.035Z,12.55
2022-09-12T00:10:17.275Z,12.57
2022-09-12T00:13:27.196Z,12.62
2022-09-12T00:16:35.203Z,12.65
2022-09-12T00:19:41.902Z,12.67
2022-09-12T00:22:47.975Z,12.71
2022-09-12T00:25:54.615Z,12.74
2022-09-12T00:29:03.744Z,12.73
2022-09-12T00:32:10.474Z,12.74
2022-09-12T00:35:16.331Z,12.72
2022-09-12T00:38:24.150Z,12.69
2022-09-12T00:41:32.327Z,12.64
2022-09-12T00:44:55.361Z,12.61
2022-09-12T00:48:06.879Z,12.55
2022-09-12T00:51:15.119Z,12.52
2022-09-12T00:54:26.019Z,12.51
2022-09-12T00:57:37.872Z,12.49
2022-09-12T01:00:47.502Z,12.46
2022-09-12T01:03:54.654Z,12.42
2022-09-12T01:07:03.596Z,12.40
2022-09-12T01:10:12.852Z,12.37
2022-09-12T01:13:20.102Z,12.35
2022-09-12T01:16:28.804Z,12.34
2022-09-12T01:20:10.424Z,12.34
2022-09-12T01:23:39.824Z,12.29
2022-09-12T01:27:14.308Z,12.24
2022-09-12T01:30:46.265Z,12.17
2022-09-12T01:34:13.715Z,12.17
2022-09-12T01:37:29.563Z,12.12
2022-09-12T01:40:45.973Z,12.09
2022-09-12T01:43:58.508Z,12.07
2022-09-12T01:47:17.068Z,12.07
2022-09-12T01:50:26.061Z,12.05
2022-09-12T01:53:38.708Z,12.01
2022-09-12T01:56:47.022Z,11.97
2022-09-12T01:59:59.735Z,11.94
2022-09-12T02:03:15.301Z,11.92
2022-09-12T02:06:26.795Z,11.94
2022-09-12T02:09:38.850Z,11.97
2022-09-12T02:12:51.205Z,11.92
2022-09-12T02:16:03.789Z,11.91
2022-09-12T02:19:19.205Z,11.90
2022-09-12T02:22:28.560Z,11.87
2022-09-12T02:25:36.724Z,11.88
2022-09-12T02:28:46.469Z,11.89
2022-09-12T02:32:03.563Z,11.93
2022-09-12T02:35:23.664Z,11.92
2022-09-12T02:38:36.493Z,11.90
2022-09-12T02:41:42.323Z,11.86
2022-09-12T02:44:49.713Z,11.82
2022-09-12T02:48:03.556Z,11.76
2022-09-12T02:51:14.704Z,11.73
2022-09-12T02:54:22.613Z,11.68
2022-09-12T02:57:29.863Z,11.62
2022-09-12T03:00:41.034Z,11.62
2022-09-12T03:04:11.384Z,11.61
2022-09-12T03:07:31.321Z,11.55
2022-09-12T03:10:51.176Z,11.48
2022-09-12T03:14:08.932Z,11.46
2022-09-12T03:17:22.821Z,11.44
2022-09-12T03:20:40.971Z,11.41
2022-09-12T03:24:04.009Z,11.37
2022-09-12T03:27:16.684Z,11.37
2022-09-12T03:30:23.831Z,11.34
2022-09-12T03:33:30.261Z,11.33
2022-09-12T03:36:36.991Z,11.31
2022-09-12T03:39:45.743Z,11.27
2022-09-12T03:42:52.529Z,11.26
2022-09-12T03:45:58.625Z,11.28
2022-09-12T03:49:07.577Z,11.33
2022-09-12T03:52:14.046Z,11.36
2022-09-12T03:55:23.834Z,11.34
2022-09-12T03:58:34.147Z,11.32
2022-09-12T04:01:41.943Z,11.30
2022-09-12T04:04:49.079Z,11.29
2022-09-12T04:07:56.504Z,11.29
2022-09-12T04:11:10.015Z,11.26
2022-09-12T04:14:17.534Z,11.22
2022-09-12T04:17:23.542Z,11.21
2022-09-12T04:20:30.627Z,11.23
2022-09-12T04:23:37.418Z,11.24
2022-09-12T04:26:47.228Z,11.29
2022-09-12T04:29:55.021Z,11.32
2022-09-12T04:33:07.923Z,11.35
2022-09-12T04:36:17.902Z,11.38
2022-09-12T04:39:24.715Z,11.39
2022-09-12T04:42:33.393Z,11.40
2022-09-12T04:45:41.148Z,11.39
2022-09-12T04:48:47.898Z,11.36
2022-09-12T04:51:56.979Z,11.30
2022-09-12T04:55:03.466Z,11.30
2022-09-12T04:58:13.734Z,11.30
2022-09-12T05:01:21.835Z,11.32
2022-09-12T05:04:28.906Z,11.34
2022-09-12T05:07:35.734Z,11.32
2022-09-12T05:10:43.178Z,11.34
2022-09-12T05:13:52.203Z,11.38
2022-09-12T05:17:04.163Z,11.44
2022-09-12T05:20:13.070Z,11.44
2022-09-12T05:23:19.725Z,11.45
2022-09-12T05:26:26.596Z,11.45
2022-09-12T05:29:36.290Z,11.44
2022-09-12T05:32:42.394Z,11.49
2022-09-12T05:35:55.216Z,11.59
2022-09-12T05:39:03.568Z,11.59
2022-09-12T05:42:10.719Z,11.64
2022-09-12T05:45:19.630Z,11.75
2022-09-12T05:48:27.521Z,11.83
2022-09-12T05:51:38.243Z,11.85
2022-09-12T05:54:44.841Z,11.81
2022-09-12T05:57:50.900Z,11.90
2022-09-12T06:01:07.604Z,11.96
2022-09-12T06:04:14.605Z,11.93
2022-09-12T06:07:21.395Z,12.00
2022-09-12T06:10:27.577Z,12.08
2022-09-12T06:13:35.183Z,12.18
2022-09-12T06:16:44.222Z,12.15
2022-09-12T06:19:51.734Z,12.11
2022-09-12T06:22:57.793Z,12.11
2022-09-12T06:26:06.695Z,12.15
2022-09-12T06:29:14.686Z,12.18
2022-09-12T06:32:24.372Z,12.23
2022-09-12T06:35:30.126Z,12.23
2022-09-12T06:38:37.098Z,12.24
2022-09-12T06:41:44.375Z,12.35
2022-09-12T06:44:52.288Z,12.36
2022-09-12T06:48:01.332Z,12.41
2022-09-12T06:51:10.703Z,12.54
2022-09-12T06:54:17.523Z,12.67
2022-09-12T06:57:24.397Z,12.84
2022-09-12T07:00:31.566Z,12.97
2022-09-12T07:03:41.604Z,13.14
2022-09-12T07:06:48.343Z,13.11
2022-09-12T07:09:58.446Z,13.04
2022-09-12T07:13:07.138Z,13.04
2022-09-12T07:16:19.201Z,13.03
2022-09-12T07:19:28.470Z,13.01
2022-09-12T07:22:35.149Z,13.04
2022-09-12T07:25:41.182Z,13.19
2022-09-12T07:28:48.365Z,13.23
2022-09-12T07:31:54.150Z,13.34
2022-09-12T07:35:03.626Z,13.36
2022-09-12T07:38:09.569Z,13.46
2022-09-12T07:41:17.451Z,13.60
2022-09-12T07:44:23.832Z,13.51
2022-09-12T07:47:30.735Z,13.39
2022-09-12T07:50:44.524Z,13.41
2022-09-12T07:53:52.140Z,13.44
2022-09-12T07:56:58.202Z,13.42
2022-09-12T08:00:07.706Z,13.48
2022-09-12T08:03:18.118Z,13.56
2022-09-12T08:06:31.412Z,13.73
2022-09-12T08:09:37.171Z,13.82
2022-09-12T08:12:44.341Z,14.13
2022-09-12T08:15:50.268Z,14.26
2022-09-12T08:18:57.128Z,14.26
2022-09-12T08:22:06.274Z,14.30
2022-09-12T08:25:13.707Z,14.15
2022-09-12T08:28:19.624Z,14.00
2022-09-12T08:31:28.980Z,13.85
2022-09-12T08:34:34.775Z,13.76
2022-09-12T08:37:44.218Z,13.77
2022-09-12T08:40:57.151Z,13.85
2022-09-12T08:44:35.253Z,14.01
2022-09-12T08:47:44.694Z,14.02
2022-09-12T08:50:51.303Z,14.08
2022-09-12T08:54:03.536Z,14.26
2022-09-12T08:57:14.601Z,14.41
2022-09-12T09:00:22.277Z,14.38
2022-09-12T09:04:09.115Z,14.29
2022-09-12T09:07:34.326Z,14.35
2022-09-12T09:10:53.207Z,14.53
2022-09-12T09:14:27.816Z,14.83
2022-09-12T09:17:39.536Z,14.89
2022-09-12T09:20:49.912Z,14.81
2022-09-12T09:24:04.358Z,14.81
2022-09-12T09:27:39.453Z,14.83
2022-09-12T09:30:49.548Z,14.83
2022-09-12T09:33:57.771Z,14.90
2022-09-12T09:37:13.645Z,14.96
2022-09-12T09:40:27.945Z,15.03
2022-09-12T09:43:37.607Z,15.14
2022-09-12T09:46:43.421Z,15.23
2022-09-12T09:49:50.518Z,15.30
2022-09-12T09:53:03.530Z,15.27
2022-09-12T09:56:18.394Z,15.26
2022-09-12T09:59:33.889Z,15.31
2022-09-12T10:02:40.654Z,15.48
2022-09-12T10:05:52.034Z,15.65
2022-09-12T10:09:10.310Z,15.69
2022-09-12T10:12:31.702Z,15.65
2022-09-12T10:15:41.289Z,15.62
2022-09-12T10:18:48.252Z,15.55
2022-09-12T10:21:58.085Z,15.55
2022-09-12T10:25:06.610Z,15.71
2022-09-12T10:28:27.332Z,15.94
2022-09-12T10:31:44.620Z,16.00
2022-09-12T10:34:51.681Z,16.03
2022-09-12T10:38:00.204Z,16.07
2022-09-12T10:41:11.987Z,15.98
2022-09-12T10:44:20.584Z,15.99
2022-09-12T10:47:34.511Z,16.10
2022-09-12T10:50:43.947Z,16.29
2022-09-12T10:53:50.821Z,16.26
2022-09-12T10:57:38.936Z,16.37
2022-09-12T11:00:51.056Z,16.33
2022-09-12T11:04:22.322Z,16.22
2022-09-12T11:07:44.090Z,16.17
2022-09-12T11:10:59.381Z,16.19
2022-09-12T11:14:31.319Z,16.25
2022-09-12T11:17:49.126Z,16.26
2022-09-12T11:21:09.785Z,16.28
2022-09-12T11:24:33.069Z,16.27
2022-09-12T11:27:57.363Z,16.21
2022-09-12T11:31:23.589Z,16.23
2022-09-12T11:34:43.598Z,16.40
2022-09-12T11:38:07.732Z,16.47
2022-09-12T11:41:22.196Z,16.64
2022-09-12T11:44:32.080Z,16.75
2022-09-12T11:47:41.110Z,16.85
2022-09-12T11:50:46.973Z,16.93
2022-09-12T11:54:06.573Z,16.97
2022-09-12T11:57:21.016Z,16.98
2022-09-12T12:00:34.358Z,17.07
2022-09-12T12:03:44.288Z,17.16
2022-09-12T12:06:55.834Z,17.16
2022-09-12T12:10:06.994Z,17.18
2022-09-12T12:13:22.677Z,17.13
2022-09-12T12:16:31.252Z,17.07
2022-09-12T12:19:39.978Z,17.00
2022-09-12T12:22:55.325Z,16.90
2022-09-12T12:26:06.704Z,16.90
2022-09-12T12:29:14.220Z,16.95
2022-09-12T12:32:28.860Z,16.99
2022-09-12T12:35:42.921Z,16.96
2022-09-12T12:38:49.793Z,16.87
2022-09-12T12:41:58.861Z,16.93
2022-09-12T12:45:28.483Z,16.86
2022-09-12T12:48:51.830Z,16.83
2022-09-12T12:52:03.856Z,16.95
2022-09-12T12:55:17.865Z,17.12
2022-09-12T12:58:40.839Z,17.26
2022-09-12T13:01:54.964Z,17.16
2022-09-12T13:05:04.002Z,17.01
2022-09-12T13:08:14.131Z,16.99
2022-09-12T13:11:33.693Z,17.02
2022-09-12T13:14:59.628Z,16.98
2022-09-12T13:18:10.566Z,16.93
2022-09-12T13:21:19.543Z,16.93
2022-09-12T13:24:27.035Z,16.96
2022-09-12T13:27:32.836Z,17.00
2022-09-12T13:30:45.643Z,17.05
2022-09-12T13:33:55.940Z,17.09
2022-09-12T13:37:32.501Z,17.13
2022-09-12T13:40:50.497Z,17.05
2022-09-12T13:43:57.466Z,17.06
2022-09-12T13:47:07.106Z,17.09
2022-09-12T13:50:20.487Z,17.06
2022-09-12T13:53:29.305Z,17.01
2022-09-12T13:56:35.991Z,17.06
2022-09-12T13:59:42.943Z,17.09
2022-09-12T14:03:12.860Z,17.20
2022-09-12T14:06:19.148Z,17.31
2022-09-12T14:09:28.997Z,17.29
2022-09-12T14:12:41.847Z,17.28
2022-09-12T14:15:51.011Z,17.32
2022-09-12T14:19:00.824Z,17.33
2022-09-12T14:22:18.268Z,17.21
2022-09-12T14:25:29.853Z,17.06
2022-09-12T14:28:37.915Z,16.95
2022-09-12T14:31:44.063Z,16.89
2022-09-12T14:35:21.152Z,16.92
2022-09-12T14:38:37.565Z,16.86
2022-09-12T14:41:46.467Z,16.89
2022-09-12T14:45:00.586Z,16.90
2022-09-12T14:48:08.906Z,16.95
2022-09-12T14:51:26.312Z,16.99
2022-09-12T14:54:43.781Z,17.09
2022-09-12T14:57:50.726Z,17.09
2022-09-12T15:01:03.791Z,17.07
2022-09-12T15:04:09.705Z,17.09
2022-09-12T15:07:28.363Z,17.21
2022-09-12T15:10:37.940Z,17.24
2022-09-12T15:13:45.508Z,17.24
2022-09-12T15:16:51.397Z,17.32
2022-09-12T15:19:58.003Z,17.36
2022-09-12T15:23:07.046Z,17.29
2022-09-12T15:26:16.843Z,17.31
2022-09-12T15:29:22.609Z,17.40
2022-09-12T15:32:31.937Z,17.39
2022-09-12T15:35:38.436Z,17.50
2022-09-12T15:38:49.060Z,17.50
2022-09-12T15:41:55.007Z,17.31
2022-09-12T15:45:04.787Z,17.14
2022-09-12T15:48:10.727Z,17.04
2022-09-12T15:51:18.947Z,16.91
2022-09-12T15:54:27.577Z,16.84
2022-09-12T15:57:34.990Z,16.79
2022-09-12T16:00:41.285Z,16.71
2022-09-12T16:03:49.721Z,16.65
2022-09-12T16:06:56.374Z,16.59
2022-09-12T16:10:06.862Z,16.53
2022-09-12T16:13:13.049Z,16.45
2022-09-12T16:16:19.720Z,16.43
2022-09-12T16:19:26.246Z,16.42
2022-09-12T16:22:33.427Z,16.40
2022-09-12T16:25:42.066Z,16.35
2022-09-12T16:28:49.360Z,16.30
2022-09-12T16:31:55.499Z,16.23
2022-09-12T16:35:03.543Z,16.16
2022-09-12T16:38:09.925Z,16.05
2022-09-12T16:41:20.649Z,15.98
2022-09-12T16:44:26.424Z,15.88
2022-09-12T16:47:33.406Z,15.80
2022-09-12T16:50:39.416Z,15.74
2022-09-12T16:53:46.382Z,15.68
2022-09-12T16:56:55.241Z,15.64
2022-09-12T17:00:03.800Z,15.60
2022-09-12T17:03:10.040Z,15.55
2022-09-12T17:06:18.377Z,15.48
2022-09-12T17:09:24.325Z,15.42
2022-09-12T17:12:33.777Z,15.37
2022-09-12T17:15:41.570Z,15.32
2022-09-12T17:18:48.332Z,15.29
2022-09-12T17:21:54.223Z,15.24
2022-09-12T17:25:01.455Z,15.20
2022-09-12T17:28:10.801Z,15.20
2022-09-12T17:31:18.029Z,15.17
2022-09-12T17:34:24.052Z,15.15
2022-09-12T17:37:30.711Z,15.12
2022-09-12T17:40:58.463Z,15.09
2022-09-12T17:44:10.703Z,15.07
2022-09-12T17:47:16.464Z,15.07
2022-09-12T17:50:32.476Z,15.06
2022-09-12T17:53:39.949Z,15.02
2022-09-12T17:56:49.929Z,14.98
2022-09-12T17:59:58.555Z,14.94
2022-09-12T18:03:05.894Z,14.90
2022-09-12T18:06:12.046Z,14.84
2022-09-12T18:09:20.936Z,14.79
2022-09-12T18:12:27.518Z,14.75
2022-09-12T18:15:39.488Z,14.70
2022-09-12T18:18:45.703Z,14.64
2022-09-12T18:21:53.226Z,14.60
2022-09-12T18:24:59.386Z,14.58
2022-09-12T18:28:09.231Z,14.49
2022-09-12T18:31:24.356Z,14.49
2022-09-12T18:34:31.253Z,14.41
2022-09-12T18:37:37.998Z,14.39
2022-09-12T18:40:44.751Z,14.37
2022-09-12T18:43:52.003Z,14.33
2022-09-12T18:47:04.863Z,14.31
2022-09-12T18:50:11.921Z,14.30
2022-09-12T18:53:18.909Z,14.27
2022-09-12T18:56:26.843Z,14.23
2022-09-12T18:59:33.792Z,14.17
2022-09-12T19:02:42.677Z,14.14
2022-09-12T19:05:49.474Z,14.09
2022-09-12T19:08:56.203Z,14.09
2022-09-12T19:12:03.730Z,14.08
2022-09-12T19:15:11.677Z,14.07
2022-09-12T19:18:21.595Z,14.07
2022-09-12T19:21:30.057Z,14.02
2022-09-12T19:24:37.457Z,13.99
2022-09-12T19:27:43.565Z,13.96
2022-09-12T19:30:50.691Z,13.92
2022-09-12T19:34:03.478Z,13.90
2022-09-12T19:37:10.953Z,13.86
2022-09-12T19:40:18.385Z,13.84
2022-09-12T19:43:25.726Z,13.80
2022-09-12T19:46:31.798Z,13.79
2022-09-12T19:50:00.148Z,13.77
2022-09-12T19:53:23.590Z,13.72
2022-09-12T19:56:50.753Z,13.69
2022-09-12T19:59:57.049Z,13.65
2022-09-12T20:03:18.369Z,13.60
2022-09-12T20:06:42.557Z,13.54
2022-09-12T20:10:03.519Z,13.47
2022-09-12T20:13:10.451Z,13.42
2022-09-12T20:16:21.760Z,13.41
2022-09-12T20:19:29.120Z,13.39
2022-09-12T20:22:40.334Z,13.37
2022-09-12T20:25:47.430Z,13.30
2022-09-12T20:28:54.384Z,13.29
2022-09-12T20:32:04.814Z,13.24
2022-09-12T20:35:11.701Z,13.20
2022-09-12T20:38:21.535Z,13.20
2022-09-12T20:41:29.012Z,13.22
2022-09-12T20:44:35.739Z,13.24
2022-09-12T20:47:41.805Z,13.26
2022-09-12T20:50:48.826Z,13.28
2022-09-12T20:53:59.660Z,13.35
2022-09-12T20:57:07.445Z,13.38
2022-09-12T21:00:15.011Z,13.44
2022-09-12T21:03:22.085Z,13.48
2022-09-12T21:06:28.177Z,13.50
2022-09-12T21:09:37.670Z,13.56
2022-09-12T21:12:43.450Z,13.61
2022-09-12T21:15:50.452Z,13.67
2022-09-12T21:18:58.321Z,13.67
2022-09-12T21:22:05.228Z,13.60
2022-09-12T21:25:14.357Z,13.57
2022-09-12T21:28:21.286Z,13.55
2022-09-12T21:31:28.080Z,13.51
2022-09-12T21:34:35.018Z,13.45
2022-09-12T21:37:41.120Z,13.41
2022-09-12T21:40:51.677Z,13.36
2022-09-12T21:43:57.788Z,13.28
2022-09-12T21:47:07.088Z,13.20
2022-09-12T21:50:13.889Z,13.14
2022-09-12T21:53:20.821Z,13.08
2022-09-12T21:56:29.737Z,13.04
2022-09-12T21:59:36.418Z,12.98
2022-09-12T22:02:43.061Z,13.00
2022-09-12T22:05:54.402Z,13.01
2022-09-12T22:09:00.445Z,13.00
2022-09-12T22:12:11.740Z,12.98
2022-09-12T22:15:39.627Z,12.92
2022-09-12T22:18:47.304Z,12.87
2022-09-12T22:22:08.774Z,12.83
2022-09-12T22:25:15.519Z,12.78
2022-09-12T22:28:25.347Z,12.76
2022-09-12T22:31:32.299Z,12.72
2022-09-12T22:34:38.103Z,12.69
2022-09-12T22:37:45.353Z,12.67
2022-09-12T22:40:51.115Z,12.63
2022-09-12T22:44:03.494Z,12.63
2022-09-12T22:47:09.686Z,12.58
2022-09-12T22:50:16.352Z,12.56
2022-09-12T22:53:22.132Z,12.54
2022-09-12T22:56:29.513Z,12.50
2022-09-12T22:59:38.429Z,12.42
2022-09-12T23:02:45.301Z,12.36
2022-09-12T23:05:52.282Z,12.34
2022-09-12T23:08:59.261Z,12.31
2022-09-12T23:12:05.949Z,12.27
2022-09-12T23:15:15.691Z,12.23
2022-09-12T23:18:21.493Z,12.21
2022-09-12T23:21:30.206Z,12.16
2022-09-12T23:24:35.992Z,12.13
2022-09-12T23:27:43.165Z,12.09
2022-09-12T23:30:57.506Z,12.07
2022-09-12T23:34:06.940Z,12.02
2022-09-12T23:37:13.557Z,12.01
2022-09-12T23:40:20.547Z,11.94
2022-09-12T23:43:26.587Z,11.90
2022-09-12T23:46:37.083Z,11.87
2022-09-12T23:49:45.903Z,11.86
2022-09-12T23:52:52.744Z,11.88
2022-09-12T23:55:58.855Z,11.91
2022-09-12T23:59:07.538Z,11.90
